sensor_id;sensor_type;location;lat;lon;timestamp;pressure;altitude;pressure_sealevel;temperature;humidity
50356;BME280;36264;51.296;-0.602;2022-08-11T00:01:59;102058.22;;;18.88;54.36
50356;BME280;36264;51.296;-0.602;2022-08-11T00:04:26;102060.97;;;18.85;52.29
50356;BME280;36264;51.296;-0.602;2022-08-11T00:06:52;102069.00;;;18.82;52.25
50356;BME280;36264;51.296;-0.602;2022-08-11T00:09:20;102062.81;;;18.83;52.26
50356;BME280;36264;51.296;-0.602;2022-08-11T00:11:52;102057.31;;;18.89;52.13
50356;BME280;36264;51.296;-0.602;2022-08-11T00:14:21;102062.44;;;18.92;52.08
50356;BME280;36264;51.296;-0.602;2022-08-11T00:19:25;102063.09;;;18.77;60.63
50356;BME280;36264;51.296;-0.602;2022-08-11T00:21:53;102060.50;;;18.75;52.47
50356;BME280;36264;51.296;-0.602;2022-08-11T00:24:19;102062.16;;;18.78;52.49
50356;BME280;36264;51.296;-0.602;2022-08-11T00:26:53;102064.81;;;18.78;52.62
50356;BME280;36264;51.296;-0.602;2022-08-11T00:29:20;102070.13;;;18.76;52.43
50356;BME280;36264;51.296;-0.602;2022-08-11T00:31:48;102076.38;;;18.74;52.50
50356;BME280;36264;51.296;-0.602;2022-08-11T00:34:17;102076.72;;;18.66;52.78
50356;BME280;36264;51.296;-0.602;2022-08-11T00:36:46;102077.97;;;18.57;53.02
50356;BME280;36264;51.296;-0.602;2022-08-11T00:39:13;102069.53;;;18.49;53.32
50356;BME280;36264;51.296;-0.602;2022-08-11T00:44:36;102069.41;;;18.32;55.99
50356;BME280;36264;51.296;-0.602;2022-08-11T01:12:29;102058.16;;;17.63;57.34
50356;BME280;36264;51.296;-0.602;2022-08-11T01:27:22;102038.91;;;17.18;58.98
50356;BME280;36264;51.296;-0.602;2022-08-11T01:30:19;102037.00;;;17.22;56.93
50356;BME280;36264;51.296;-0.602;2022-08-11T01:46:55;102036.72;;;17.06;56.77
50356;BME280;36264;51.296;-0.602;2022-08-11T01:49:43;102034.16;;;17.05;59.05
50356;BME280;36264;51.296;-0.602;2022-08-11T01:52:20;102043.88;;;17.02;57.17
50356;BME280;36264;51.296;-0.602;2022-08-11T02:00:26;102049.34;;;16.96;56.87
50356;BME280;36264;51.296;-0.602;2022-08-11T02:03:09;102034.75;;;16.89;57.98
50356;BME280;36264;51.296;-0.602;2022-08-11T02:08:44;102039.31;;;16.59;60.55
50356;BME280;36264;51.296;-0.602;2022-08-11T02:11:27;102043.34;;;16.44;60.79
50356;BME280;36264;51.296;-0.602;2022-08-11T02:16:47;102042.91;;;16.31;59.47
50356;BME280;36264;51.296;-0.602;2022-08-11T02:22:56;102037.34;;;16.40;60.96
50356;BME280;36264;51.296;-0.602;2022-08-11T02:25:52;102045.31;;;16.37;58.82
50356;BME280;36264;51.296;-0.602;2022-08-11T02:31:19;102029.22;;;16.23;58.94
50356;BME280;36264;51.296;-0.602;2022-08-11T02:34:47;102033.03;;;16.12;61.25
50356;BME280;36264;51.296;-0.602;2022-08-11T02:47:59;102022.22;;;15.97;62.01
50356;BME280;36264;51.296;-0.602;2022-08-11T03:00:06;102020.22;;;15.78;68.28
50356;BME280;36264;51.296;-0.602;2022-08-11T03:10:31;102019.94;;;15.86;63.70
50356;BME280;36264;51.296;-0.602;2022-08-11T03:25:28;102002.59;;;15.83;61.69
50356;BME280;36264;51.296;-0.602;2022-08-11T03:27:33;102011.25;;;15.85;59.73
50356;BME280;36264;51.296;-0.602;2022-08-11T03:30:33;102012.38;;;15.78;63.11
50356;BME280;36264;51.296;-0.602;2022-08-11T03:33:24;102017.66;;;15.77;60.41
50356;BME280;36264;51.296;-0.602;2022-08-11T03:36:33;102015.03;;;15.77;60.45
50356;BME280;36264;51.296;-0.602;2022-08-11T03:39:14;102013.25;;;15.77;60.36
50356;BME280;36264;51.296;-0.602;2022-08-11T03:41:48;102003.66;;;15.76;60.51
50356;BME280;36264;51.296;-0.602;2022-08-11T03:52:22;102003.78;;;15.71;63.44
50356;BME280;36264;51.296;-0.602;2022-08-11T04:00:34;101994.28;;;15.69;62.90
50356;BME280;36264;51.296;-0.602;2022-08-11T04:09:00;101997.25;;;15.58;62.23
50356;BME280;36264;51.296;-0.602;2022-08-11T04:11:57;101991.31;;;15.53;63.45
50356;BME280;36264;51.296;-0.602;2022-08-11T04:32:08;101985.84;;;15.32;65.61
50356;BME280;36264;51.296;-0.602;2022-08-11T04:34:50;101982.53;;;15.26;62.96
50356;BME280;36264;51.296;-0.602;2022-08-11T04:56:10;101980.72;;;14.99;65.61
50356;BME280;36264;51.296;-0.602;2022-08-11T05:05:21;101979.56;;;14.80;65.76
50356;BME280;36264;51.296;-0.602;2022-08-11T05:08:20;101977.03;;;14.77;65.86
50356;BME280;36264;51.296;-0.602;2022-08-11T05:14:26;101983.22;;;14.74;67.30
50356;BME280;36264;51.296;-0.602;2022-08-11T05:17:15;101982.22;;;14.78;63.92
50356;BME280;36264;51.296;-0.602;2022-08-11T05:20:08;101985.56;;;14.83;63.80
50356;BME280;36264;51.296;-0.602;2022-08-11T05:22:53;101989.75;;;14.89;63.50
50356;BME280;36264;51.296;-0.602;2022-08-11T05:25:43;101986.16;;;14.93;63.37
50356;BME280;36264;51.296;-0.602;2022-08-11T05:28:34;101991.38;;;14.93;64.00
50356;BME280;36264;51.296;-0.602;2022-08-11T05:31:24;101995.81;;;14.91;63.43
50356;BME280;36264;51.296;-0.602;2022-08-11T05:34:10;101990.53;;;14.93;63.57
50356;BME280;36264;51.296;-0.602;2022-08-11T05:37:08;101992.22;;;14.94;63.46
50356;BME280;36264;51.296;-0.602;2022-08-11T05:39:47;101998.38;;;14.93;64.51
50356;BME280;36264;51.296;-0.602;2022-08-11T05:42:33;101994.84;;;14.94;63.74
50356;BME280;36264;51.296;-0.602;2022-08-11T05:45:21;101991.41;;;14.92;63.96
50356;BME280;36264;51.296;-0.602;2022-08-11T05:48:05;101994.03;;;14.92;64.30
50356;BME280;36264;51.296;-0.602;2022-08-11T05:50:55;101996.44;;;14.99;63.87
50356;BME280;36264;51.296;-0.602;2022-08-11T05:53:53;101993.06;;;14.96;65.19
50356;BME280;36264;51.296;-0.602;2022-08-11T05:56:49;101995.63;;;14.97;65.31
50356;BME280;36264;51.296;-0.602;2022-08-11T05:59:18;102006.91;;;14.99;64.94
50356;BME280;36264;51.296;-0.602;2022-08-11T06:01:45;102005.09;;;15.01;64.86
50356;BME280;36264;51.296;-0.602;2022-08-11T06:04:20;102001.47;;;15.06;65.28
50356;BME280;36264;51.296;-0.602;2022-08-11T06:06:48;101993.59;;;15.07;64.94
50356;BME280;36264;51.296;-0.602;2022-08-11T06:09:26;102001.25;;;15.13;65.20
50356;BME280;36264;51.296;-0.602;2022-08-11T06:11:54;102006.34;;;15.18;64.91
50356;BME280;36264;51.296;-0.602;2022-08-11T06:14:21;102010.53;;;15.24;65.54
50356;BME280;36264;51.296;-0.602;2022-08-11T06:16:49;102010.34;;;15.30;65.00
50356;BME280;36264;51.296;-0.602;2022-08-11T06:19:19;102001.41;;;15.37;65.28
50356;BME280;36264;51.296;-0.602;2022-08-11T06:21:48;102007.44;;;15.39;65.30
50356;BME280;36264;51.296;-0.602;2022-08-11T06:24:16;102007.16;;;15.48;65.52
50356;BME280;36264;51.296;-0.602;2022-08-11T06:26:50;102006.94;;;15.56;66.04
50356;BME280;36264;51.296;-0.602;2022-08-11T06:29:17;102003.28;;;15.60;65.57
50356;BME280;36264;51.296;-0.602;2022-08-11T06:31:52;102005.56;;;15.71;65.48
50356;BME280;36264;51.296;-0.602;2022-08-11T06:37:24;102005.78;;;15.91;66.34
50356;BME280;36264;51.296;-0.602;2022-08-11T06:40:11;101997.59;;;16.02;66.07
50356;BME280;36264;51.296;-0.602;2022-08-11T06:42:57;102003.94;;;16.20;66.78
50356;BME280;36264;51.296;-0.602;2022-08-11T06:45:31;101995.72;;;16.31;65.27
50356;BME280;36264;51.296;-0.602;2022-08-11T06:48:00;101998.00;;;16.40;66.32
50356;BME280;36264;51.296;-0.602;2022-08-11T06:50:28;102000.22;;;16.53;65.55
50356;BME280;36264;51.296;-0.602;2022-08-11T06:53:15;102005.91;;;16.64;65.30
50356;BME280;36264;51.296;-0.602;2022-08-11T06:55:44;102006.44;;;16.74;65.70
50356;BME280;36264;51.296;-0.602;2022-08-11T06:58:38;101996.50;;;16.82;66.04
50356;BME280;36264;51.296;-0.602;2022-08-11T07:01:45;102001.31;;;16.94;66.11
50356;BME280;36264;51.296;-0.602;2022-08-11T07:04:15;101988.75;;;17.02;65.37
50356;BME280;36264;51.296;-0.602;2022-08-11T07:06:56;101993.59;;;17.13;65.88
50356;BME280;36264;51.296;-0.602;2022-08-11T07:12:44;101991.13;;;17.32;65.15
50356;BME280;36264;51.296;-0.602;2022-08-11T07:15:34;101994.16;;;17.44;64.64
50356;BME280;36264;51.296;-0.602;2022-08-11T07:18:06;101995.59;;;17.51;65.06
50356;BME280;36264;51.296;-0.602;2022-08-11T07:20:52;102002.22;;;17.61;64.77
50356;BME280;36264;51.296;-0.602;2022-08-11T07:23:38;102005.31;;;17.71;64.71
50356;BME280;36264;51.296;-0.602;2022-08-11T07:26:24;102002.31;;;17.80;65.08
50356;BME280;36264;51.296;-0.602;2022-08-11T07:29:12;102001.97;;;17.89;64.51
50356;BME280;36264;51.296;-0.602;2022-08-11T07:31:42;101989.41;;;17.96;64.37
50356;BME280;36264;51.296;-0.602;2022-08-11T07:34:20;101997.81;;;18.04;64.93
50356;BME280;36264;51.296;-0.602;2022-08-11T07:36:52;102001.03;;;18.11;64.85
50356;BME280;36264;51.296;-0.602;2022-08-11T07:39:24;102004.22;;;18.19;64.44
50356;BME280;36264;51.296;-0.602;2022-08-11T07:41:52;101993.41;;;18.25;65.03
50356;BME280;36264;51.296;-0.602;2022-08-11T07:44:18;102002.69;;;18.34;65.30
50356;BME280;36264;51.296;-0.602;2022-08-11T07:46:46;102002.34;;;18.42;65.36
50356;BME280;36264;51.296;-0.602;2022-08-11T07:49:34;102000.22;;;18.50;66.64
50356;BME280;36264;51.296;-0.602;2022-08-11T07:52:19;102002.47;;;18.59;64.96
50356;BME280;36264;51.296;-0.602;2022-08-11T07:55:14;101994.94;;;18.71;65.75
50356;BME280;36264;51.296;-0.602;2022-08-11T07:57:43;101993.50;;;18.82;65.80
50356;BME280;36264;51.296;-0.602;2022-08-11T08:00:28;101991.16;;;18.97;65.48
50356;BME280;36264;51.296;-0.602;2022-08-11T08:03:12;101996.81;;;19.07;65.37
50356;BME280;36264;51.296;-0.602;2022-08-11T08:05:57;101995.44;;;19.17;65.60
50356;BME280;36264;51.296;-0.602;2022-08-11T08:08:41;101995.84;;;19.27;65.82
50356;BME280;36264;51.296;-0.602;2022-08-11T08:11:26;101998.75;;;19.40;65.93
50356;BME280;36264;51.296;-0.602;2022-08-11T08:14:10;102000.03;;;19.50;65.10
50356;BME280;36264;51.296;-0.602;2022-08-11T08:16:56;101996.25;;;19.55;65.42
50356;BME280;36264;51.296;-0.602;2022-08-11T08:19:42;101989.59;;;19.66;65.52
50356;BME280;36264;51.296;-0.602;2022-08-11T08:22:17;101992.50;;;19.79;64.97
50356;BME280;36264;51.296;-0.602;2022-08-11T08:24:44;101981.56;;;19.86;65.53
50356;BME280;36264;51.296;-0.602;2022-08-11T08:27:12;101984.66;;;19.95;65.12
50356;BME280;36264;51.296;-0.602;2022-08-11T08:29:39;101983.59;;;19.99;64.58
50356;BME280;36264;51.296;-0.602;2022-08-11T08:32:24;101982.31;;;20.06;65.08
50356;BME280;36264;51.296;-0.602;2022-08-11T08:34:53;101974.94;;;20.13;64.54
50356;BME280;36264;51.296;-0.602;2022-08-11T08:37:21;101976.19;;;20.23;65.95
50356;BME280;36264;51.296;-0.602;2022-08-11T08:39:49;101974.81;;;20.32;65.03
50356;BME280;36264;51.296;-0.602;2022-08-11T08:42:21;101978.09;;;20.37;64.28
50356;BME280;36264;51.296;-0.602;2022-08-11T08:44:51;101980.41;;;20.43;65.19
50356;BME280;36264;51.296;-0.602;2022-08-11T08:47:18;101986.81;;;20.55;64.60
50356;BME280;36264;51.296;-0.602;2022-08-11T08:49:47;101984.31;;;20.69;64.67
50356;BME280;36264;51.296;-0.602;2022-08-11T08:52:18;101973.09;;;20.81;64.09
50356;BME280;36264;51.296;-0.602;2022-08-11T08:54:47;101976.00;;;20.93;64.45
50356;BME280;36264;51.296;-0.602;2022-08-11T08:57:15;101968.56;;;20.99;64.02
50356;BME280;36264;51.296;-0.602;2022-08-11T08:59:44;101970.97;;;21.04;63.22
50356;BME280;36264;51.296;-0.602;2022-08-11T09:02:11;101968.81;;;21.11;63.48
50356;BME280;36264;51.296;-0.602;2022-08-11T09:04:38;101972.00;;;21.17;63.31
50356;BME280;36264;51.296;-0.602;2022-08-11T09:07:16;101968.72;;;21.28;66.18
50356;BME280;36264;51.296;-0.602;2022-08-11T09:09:46;101966.50;;;21.37;62.93
50356;BME280;36264;51.296;-0.602;2022-08-11T09:12:13;101963.41;;;21.44;63.09
50356;BME280;36264;51.296;-0.602;2022-08-11T09:14:41;101960.34;;;21.52;62.66
50356;BME280;36264;51.296;-0.602;2022-08-11T09:17:26;101957.84;;;21.65;62.72
50356;BME280;36264;51.296;-0.602;2022-08-11T09:20:17;101959.00;;;21.75;63.63
50356;BME280;36264;51.296;-0.602;2022-08-11T09:22:44;101956.66;;;21.85;61.70
50356;BME280;36264;51.296;-0.602;2022-08-11T09:25:32;101957.16;;;21.92;61.87
50356;BME280;36264;51.296;-0.602;2022-08-11T09:28:18;101955.09;;;21.97;61.79
50356;BME280;36264;51.296;-0.602;2022-08-11T09:30:48;101952.84;;;22.05;61.32
50356;BME280;36264;51.296;-0.602;2022-08-11T09:33:18;101946.13;;;22.14;60.95
50356;BME280;36264;51.296;-0.602;2022-08-11T09:35:45;101946.50;;;22.22;60.95
50356;BME280;36264;51.296;-0.602;2022-08-11T09:38:13;101945.03;;;22.32;60.81
50356;BME280;36264;51.296;-0.602;2022-08-11T09:40:58;101938.97;;;22.45;60.46
50356;BME280;36264;51.296;-0.602;2022-08-11T09:43:26;101934.88;;;22.53;60.22
50356;BME280;36264;51.296;-0.602;2022-08-11T09:46:26;101937.06;;;22.61;60.15
50356;BME280;36264;51.296;-0.602;2022-08-11T09:48:54;101938.19;;;22.71;59.94
50356;BME280;36264;51.296;-0.602;2022-08-11T09:51:21;101942.22;;;22.77;59.78
50356;BME280;36264;51.296;-0.602;2022-08-11T09:53:48;101928.41;;;22.86;59.42
50356;BME280;36264;51.296;-0.602;2022-08-11T09:56:18;101933.09;;;22.95;59.07
50356;BME280;36264;51.296;-0.602;2022-08-11T09:59:04;101921.16;;;23.03;59.41
50356;BME280;36264;51.296;-0.602;2022-08-11T10:01:51;101919.66;;;23.13;58.80
50356;BME280;36264;51.296;-0.602;2022-08-11T10:04:25;101915.72;;;23.19;58.79
50356;BME280;36264;51.296;-0.602;2022-08-11T10:07:01;101924.56;;;23.32;58.38
50356;BME280;36264;51.296;-0.602;2022-08-11T10:09:37;101925.66;;;23.42;57.90
50356;BME280;36264;51.296;-0.602;2022-08-11T10:12:06;101927.69;;;23.51;58.13
50356;BME280;36264;51.296;-0.602;2022-08-11T10:14:33;101922.28;;;23.53;57.26
50356;BME280;36264;51.296;-0.602;2022-08-11T10:17:19;101922.19;;;23.67;57.03
50356;BME280;36264;51.296;-0.602;2022-08-11T10:19:47;101917.22;;;23.76;56.96
50356;BME280;36264;51.296;-0.602;2022-08-11T10:22:14;101923.63;;;23.86;56.53
50356;BME280;36264;51.296;-0.602;2022-08-11T10:25:00;101914.72;;;24.00;56.20
50356;BME280;36264;51.296;-0.602;2022-08-11T10:27:45;101906.53;;;24.16;55.88
50356;BME280;36264;51.296;-0.602;2022-08-11T10:30:13;101906.84;;;24.24;55.65
50356;BME280;36264;51.296;-0.602;2022-08-11T10:32:57;101907.03;;;24.34;55.52
50356;BME280;36264;51.296;-0.602;2022-08-11T10:35:43;101904.66;;;24.42;54.84
50356;BME280;36264;51.296;-0.602;2022-08-11T10:38:12;101902.41;;;24.49;54.43
50356;BME280;36264;51.296;-0.602;2022-08-11T10:40:39;101902.94;;;24.54;54.48
50356;BME280;36264;51.296;-0.602;2022-08-11T10:43:06;101898.28;;;24.57;53.92
50356;BME280;36264;51.296;-0.602;2022-08-11T10:45:43;101895.19;;;24.64;53.69
50356;BME280;36264;51.296;-0.602;2022-08-11T10:48:28;101895.47;;;24.72;53.20
50356;BME280;36264;51.296;-0.602;2022-08-11T10:50:55;101892.38;;;24.78;52.98
50356;BME280;36264;51.296;-0.602;2022-08-11T10:53:47;101884.94;;;24.94;52.10
50356;BME280;36264;51.296;-0.602;2022-08-11T10:56:35;101882.75;;;25.12;51.92
50356;BME280;36264;51.296;-0.602;2022-08-11T10:59:21;101877.47;;;25.24;51.63
50356;BME280;36264;51.296;-0.602;2022-08-11T11:01:47;101878.19;;;25.26;51.55
50356;BME280;36264;51.296;-0.602;2022-08-11T11:04:17;101878.25;;;25.37;50.42
50356;BME280;36264;51.296;-0.602;2022-08-11T11:06:49;101872.97;;;25.48;50.83
50356;BME280;36264;51.296;-0.602;2022-08-11T11:09:25;101875.03;;;25.56;50.00
50356;BME280;36264;51.296;-0.602;2022-08-11T11:11:57;101877.69;;;25.56;49.77
50356;BME280;36264;51.296;-0.602;2022-08-11T11:14:42;101874.09;;;25.68;50.28
50356;BME280;36264;51.296;-0.602;2022-08-11T11:17:32;101874.34;;;25.77;50.31
50356;BME280;36264;51.296;-0.602;2022-08-11T11:22:55;101857.31;;;26.02;49.19
50356;BME280;36264;51.296;-0.602;2022-08-11T11:25:57;101865.53;;;26.10;47.25
50356;BME280;36264;51.296;-0.602;2022-08-11T11:35:08;101862.34;;;26.39;46.21
50356;BME280;36264;51.296;-0.602;2022-08-11T11:37:35;101866.34;;;26.45;48.20
50356;BME280;36264;51.296;-0.602;2022-08-11T11:40:13;101861.56;;;26.60;47.04
50356;BME280;36264;51.296;-0.602;2022-08-11T11:42:42;101851.91;;;26.70;47.10
50356;BME280;36264;51.296;-0.602;2022-08-11T11:45:10;101857.31;;;26.80;46.50
50356;BME280;36264;51.296;-0.602;2022-08-11T11:47:39;101851.22;;;26.89;45.67
50356;BME280;36264;51.296;-0.602;2022-08-11T11:50:06;101847.53;;;27.01;45.15
50356;BME280;36264;51.296;-0.602;2022-08-11T11:52:33;101843.81;;;27.14;44.99
50356;BME280;36264;51.296;-0.602;2022-08-11T11:55:00;101845.00;;;27.21;45.11
50356;BME280;36264;51.296;-0.602;2022-08-11T11:57:27;101845.09;;;27.31;44.78
50356;BME280;36264;51.296;-0.602;2022-08-11T12:00:11;101846.28;;;27.38;45.19
50356;BME280;36264;51.296;-0.602;2022-08-11T12:02:58;101843.22;;;27.42;44.63
50356;BME280;36264;51.296;-0.602;2022-08-11T12:05:25;101840.47;;;27.54;44.05
50356;BME280;36264;51.296;-0.602;2022-08-11T12:07:53;101835.31;;;27.62;43.51
50356;BME280;36264;51.296;-0.602;2022-08-11T12:10:47;101846.84;;;27.72;40.68
50356;BME280;36264;51.296;-0.602;2022-08-11T12:13:15;101839.88;;;27.81;43.03
50356;BME280;36264;51.296;-0.602;2022-08-11T12:16:00;101825.59;;;27.92;42.30
50356;BME280;36264;51.296;-0.602;2022-08-11T12:18:32;101820.59;;;27.98;42.98
50356;BME280;36264;51.296;-0.602;2022-08-11T12:21:02;101823.41;;;28.07;42.40
50356;BME280;36264;51.296;-0.602;2022-08-11T12:23:30;101824.44;;;28.15;42.81
50356;BME280;36264;51.296;-0.602;2022-08-11T12:26:15;101816.72;;;28.22;42.56
50356;BME280;36264;51.296;-0.602;2022-08-11T12:29:02;101813.38;;;28.40;41.35
50356;BME280;36264;51.296;-0.602;2022-08-11T12:31:30;101810.97;;;28.56;41.00
50356;BME280;36264;51.296;-0.602;2022-08-11T12:34:04;101804.13;;;28.63;41.28
50356;BME280;36264;51.296;-0.602;2022-08-11T12:36:32;101803.13;;;28.64;41.46
50356;BME280;36264;51.296;-0.602;2022-08-11T12:38:59;101798.94;;;28.71;40.94
50356;BME280;36264;51.296;-0.602;2022-08-11T12:41:26;101787.94;;;28.84;40.65
50356;BME280;36264;51.296;-0.602;2022-08-11T12:44:11;101801.56;;;28.91;40.76
50356;BME280;36264;51.296;-0.602;2022-08-11T12:47:06;101786.94;;;28.95;40.54
50356;BME280;36264;51.296;-0.602;2022-08-11T12:49:36;101783.72;;;28.91;41.17
50356;BME280;36264;51.296;-0.602;2022-08-11T12:52:25;101793.69;;;29.09;40.22
50356;BME280;36264;51.296;-0.602;2022-08-11T12:54:58;101775.75;;;29.29;38.59
50356;BME280;36264;51.296;-0.602;2022-08-11T12:57:31;101779.81;;;29.43;39.51
50356;BME280;36264;51.296;-0.602;2022-08-11T13:00:17;101782.28;;;29.54;39.66
50356;BME280;36264;51.296;-0.602;2022-08-11T13:03:02;101770.47;;;29.57;39.15
50356;BME280;36264;51.296;-0.602;2022-08-11T13:05:47;101776.22;;;29.62;39.34
50356;BME280;36264;51.296;-0.602;2022-08-11T13:08:16;101770.34;;;29.76;38.59
50356;BME280;36264;51.296;-0.602;2022-08-11T13:10:42;101763.84;;;29.89;38.61
50356;BME280;36264;51.296;-0.602;2022-08-11T13:13:27;101760.81;;;30.02;38.65
50356;BME280;36264;51.296;-0.602;2022-08-11T13:15:53;101760.88;;;30.10;38.45
50356;BME280;36264;51.296;-0.602;2022-08-11T13:18:21;101758.28;;;30.18;37.78
50356;BME280;36264;51.296;-0.602;2022-08-11T13:20:52;101762.13;;;30.33;37.12
50356;BME280;36264;51.296;-0.602;2022-08-11T13:23:18;101748.81;;;30.42;37.76
50356;BME280;36264;51.296;-0.602;2022-08-11T13:25:44;101747.28;;;30.57;37.33
50356;BME280;36264;51.296;-0.602;2022-08-11T13:28:10;101745.75;;;30.73;36.34
50356;BME280;36264;51.296;-0.602;2022-08-11T13:30:37;101746.09;;;30.78;36.91
50356;BME280;36264;51.296;-0.602;2022-08-11T13:33:21;101751.50;;;30.86;36.72
50356;BME280;36264;51.296;-0.602;2022-08-11T13:35:50;101733.38;;;30.98;36.37
50356;BME280;36264;51.296;-0.602;2022-08-11T13:38:19;101736.94;;;31.06;36.65
50356;BME280;36264;51.296;-0.602;2022-08-11T13:40:47;101737.66;;;31.17;36.66
50356;BME280;36264;51.296;-0.602;2022-08-11T13:43:13;101741.25;;;31.34;35.30
50356;BME280;36264;51.296;-0.602;2022-08-11T13:45:41;101738.22;;;31.55;34.45
50356;BME280;36264;51.296;-0.602;2022-08-11T13:48:09;101728.88;;;31.75;34.36
50356;BME280;36264;51.296;-0.602;2022-08-11T13:50:36;101729.41;;;31.87;31.57
50356;BME280;36264;51.296;-0.602;2022-08-11T13:53:23;101725.41;;;32.00;31.65
50356;BME280;36264;51.296;-0.602;2022-08-11T13:55:49;101728.25;;;32.06;33.36
50356;BME280;36264;51.296;-0.602;2022-08-11T13:58:15;101727.47;;;32.14;33.60
50356;BME280;36264;51.296;-0.602;2022-08-11T14:00:45;101726.28;;;32.17;33.58
50356;BME280;36264;51.296;-0.602;2022-08-11T14:03:13;101725.13;;;32.27;33.50
50356;BME280;36264;51.296;-0.602;2022-08-11T14:05:50;101729.16;;;32.48;31.20
50356;BME280;36264;51.296;-0.602;2022-08-11T14:08:25;101719.25;;;32.73;31.81
50356;BME280;36264;51.296;-0.602;2022-08-11T14:10:52;101711.16;;;32.90;32.75
50356;BME280;36264;51.296;-0.602;2022-08-11T14:13:48;101720.22;;;32.97;32.98
50356;BME280;36264;51.296;-0.602;2022-08-11T14:16:19;101717.16;;;33.08;32.74
50356;BME280;36264;51.296;-0.602;2022-08-11T14:18:47;101713.72;;;33.39;32.36
50356;BME280;36264;51.296;-0.602;2022-08-11T14:21:16;101713.09;;;33.60;32.17
50356;BME280;36264;51.296;-0.602;2022-08-11T14:24:02;101704.59;;;33.80;31.94
50356;BME280;36264;51.296;-0.602;2022-08-11T14:26:29;101712.88;;;34.01;31.66
50356;BME280;36264;51.296;-0.602;2022-08-11T14:31:22;101697.94;;;34.37;30.89
50356;BME280;36264;51.296;-0.602;2022-08-11T14:33:50;101698.19;;;34.50;30.75
50356;BME280;36264;51.296;-0.602;2022-08-11T14:36:18;101694.38;;;34.59;28.53
50356;BME280;36264;51.296;-0.602;2022-08-11T14:38:45;101692.19;;;34.40;30.34
50356;BME280;36264;51.296;-0.602;2022-08-11T14:41:11;101696.59;;;34.56;29.81
50356;BME280;36264;51.296;-0.602;2022-08-11T14:43:55;101693.94;;;34.71;30.23
50356;BME280;36264;51.296;-0.602;2022-08-11T14:46:41;101694.41;;;34.89;30.04
50356;BME280;36264;51.296;-0.602;2022-08-11T14:49:27;101688.91;;;35.12;30.00
50356;BME280;36264;51.296;-0.602;2022-08-11T14:51:54;101684.06;;;35.23;29.97
50356;BME280;36264;51.296;-0.602;2022-08-11T14:54:29;101683.75;;;35.47;28.94
50356;BME280;36264;51.296;-0.602;2022-08-11T14:57:14;101674.66;;;35.70;29.08
50356;BME280;36264;51.296;-0.602;2022-08-11T14:59:42;101672.56;;;35.87;29.26
50356;BME280;36264;51.296;-0.602;2022-08-11T15:02:09;101671.81;;;35.93;28.92
50356;BME280;36264;51.296;-0.602;2022-08-11T15:04:54;101681.38;;;35.96;28.55
50356;BME280;36264;51.296;-0.602;2022-08-11T15:07:21;101675.53;;;35.92;28.62
50356;BME280;36264;51.296;-0.602;2022-08-11T15:09:55;101663.84;;;36.13;29.26
50356;BME280;36264;51.296;-0.602;2022-08-11T15:12:20;101667.00;;;36.38;28.96
50356;BME280;36264;51.296;-0.602;2022-08-11T15:14:47;101667.72;;;36.54;27.74
50356;BME280;36264;51.296;-0.602;2022-08-11T15:17:33;101679.69;;;36.66;28.98
50356;BME280;36264;51.296;-0.602;2022-08-11T15:20:05;101671.25;;;36.83;26.56
50356;BME280;36264;51.296;-0.602;2022-08-11T15:22:50;101667.16;;;36.93;27.49
50356;BME280;36264;51.296;-0.602;2022-08-11T15:25:35;101672.59;;;37.00;29.37
50356;BME280;36264;51.296;-0.602;2022-08-11T15:28:03;101658.84;;;37.02;29.27
50356;BME280;36264;51.296;-0.602;2022-08-11T15:30:52;101660.28;;;37.32;27.49
50356;BME280;36264;51.296;-0.602;2022-08-11T15:33:38;101656.78;;;37.59;28.58
50356;BME280;36264;51.296;-0.602;2022-08-11T15:36:25;101656.44;;;37.88;28.07
50356;BME280;36264;51.296;-0.602;2022-08-11T15:39:18;101663.72;;;38.08;27.89
50356;BME280;36264;51.296;-0.602;2022-08-11T15:41:55;101657.47;;;38.08;23.72
50356;BME280;36264;51.296;-0.602;2022-08-11T15:44:42;101658.16;;;38.16;27.85
50356;BME280;36264;51.296;-0.602;2022-08-11T15:47:35;101654.78;;;38.41;27.39
50356;BME280;36264;51.296;-0.602;2022-08-11T15:50:03;101662.06;;;38.67;27.31
50356;BME280;36264;51.296;-0.602;2022-08-11T15:52:33;101653.25;;;38.78;24.55
50356;BME280;36264;51.296;-0.602;2022-08-11T15:55:05;101651.78;;;38.76;27.80
50356;BME280;36264;51.296;-0.602;2022-08-11T15:57:31;101652.16;;;38.93;27.38
50356;BME280;36264;51.296;-0.602;2022-08-11T16:00:16;101645.66;;;38.94;26.50
50356;BME280;36264;51.296;-0.602;2022-08-11T16:03:02;101653.38;;;38.97;26.08
50356;BME280;36264;51.296;-0.602;2022-08-11T16:05:49;101656.09;;;39.10;26.16
50356;BME280;36264;51.296;-0.602;2022-08-11T16:08:19;101644.84;;;39.39;25.08
50356;BME280;36264;51.296;-0.602;2022-08-11T16:10:47;101645.25;;;39.42;25.27
50356;BME280;36264;51.296;-0.602;2022-08-11T16:13:14;101650.47;;;39.44;25.05
50356;BME280;36264;51.296;-0.602;2022-08-11T16:15:47;101649.88;;;39.35;23.46
50356;BME280;36264;51.296;-0.602;2022-08-11T16:18:37;101646.50;;;39.40;25.01
50356;BME280;36264;51.296;-0.602;2022-08-11T16:21:17;101644.38;;;39.48;22.28
50356;BME280;36264;51.296;-0.602;2022-08-11T16:23:45;101655.81;;;39.64;25.12
50356;BME280;36264;51.296;-0.602;2022-08-11T16:26:12;101647.28;;;39.54;23.96
50356;BME280;36264;51.296;-0.602;2022-08-11T16:28:40;101647.28;;;39.54;25.12
50356;BME280;36264;51.296;-0.602;2022-08-11T16:31:09;101648.31;;;39.59;24.40
50356;BME280;36264;51.296;-0.602;2022-08-11T16:33:39;101638.66;;;39.63;23.72
50356;BME280;36264;51.296;-0.602;2022-08-11T16:36:09;101630.50;;;39.63;23.60
50356;BME280;36264;51.296;-0.602;2022-08-11T16:38:56;101646.06;;;39.43;23.85
50356;BME280;36264;51.296;-0.602;2022-08-11T16:41:25;101640.63;;;39.49;24.55
50356;BME280;36264;51.296;-0.602;2022-08-11T16:44:12;101644.97;;;39.57;23.83
50356;BME280;36264;51.296;-0.602;2022-08-11T16:46:58;101644.84;;;39.39;23.69